createdAt,value
2018-08-10T00:00:02.768Z,1.40
2018-08-10T00:01:08.431Z,1.45
2018-08-10T00:02:14.501Z,1.70
2018-08-10T00:03:20.864Z,1.60
2018-08-10T00:04:27.232Z,1.70
2018-08-10T00:05:33.165Z,1.58
2018-08-10T00:06:39.144Z,1.30
2018-08-10T00:07:45.120Z,1.60
2018-08-10T00:08:51.051Z,1.50
2018-08-10T00:09:57.254Z,1.50
2018-08-10T00:11:03.641Z,1.40
2018-08-10T00:12:09.303Z,1.83
2018-08-10T00:13:14.936Z,1.52
2018-08-10T00:14:20.673Z,1.52
2018-08-10T00:15:27.022Z,1.80
2018-08-10T00:16:32.880Z,1.67
2018-08-10T00:17:38.940Z,1.50
2018-08-10T00:18:45.353Z,1.50
2018-08-10T00:19:50.994Z,1.30
2018-08-10T00:20:56.908Z,1.73
2018-08-10T00:22:03.269Z,1.35
2018-08-10T00:23:08.903Z,1.58
2018-08-10T00:24:14.878Z,1.12
2018-08-10T00:25:20.588Z,1.50
2018-08-10T00:26:26.878Z,1.35
2018-08-10T00:27:33.208Z,1.40
2018-08-10T00:28:39.144Z,1.55
2018-08-10T00:29:45.424Z,1.42
2018-08-10T00:30:51.749Z,1.27
2018-08-10T00:31:57.727Z,1.65
2018-08-10T00:33:04.055Z,1.35
2018-08-10T00:34:10.040Z,1.48
2018-08-10T00:35:15.647Z,1.70
2018-08-10T00:36:21.715Z,1.10
2018-08-10T00:37:27.938Z,1.77
2018-08-10T00:38:34.292Z,1.92
2018-08-10T00:39:40.223Z,1.20
2018-08-10T00:40:46.150Z,1.20
2018-08-10T00:41:52.710Z,1.37
2018-08-10T00:42:58.721Z,1.85
2018-08-10T00:44:04.428Z,1.30
2018-08-10T00:45:10.004Z,1.50
2018-08-10T00:46:16.086Z,1.50
2018-08-10T00:47:22.457Z,1.50
2018-08-10T00:48:28.048Z,1.50
2018-08-10T00:49:34.092Z,1.50
2018-08-10T00:50:39.980Z,1.30
2018-08-10T00:51:46.042Z,1.23
2018-08-10T00:52:52.352Z,1.30
2018-08-10T00:53:59.774Z,1.33
2018-08-10T00:55:06.953Z,1.65
2018-08-10T00:56:12.868Z,1.45
2018-08-10T00:57:18.840Z,1.83
2018-08-10T00:58:25.139Z,1.48
2018-08-10T00:59:31.440Z,1.60
2018-08-10T01:00:37.766Z,1.30
2018-08-10T01:01:42.291Z,1.50
2018-08-10T01:02:48.000Z,1.33
2018-08-10T01:03:54.486Z,1.75
2018-08-10T01:05:00.876Z,1.33
2018-08-10T01:06:06.591Z,1.70
2018-08-10T01:07:12.633Z,1.33
2018-08-10T01:08:18.664Z,1.60
2018-08-10T01:09:25.067Z,1.33
2018-08-10T01:10:31.120Z,1.67
2018-08-10T01:11:37.388Z,1.75
2018-08-10T01:12:42.456Z,1.40
2018-08-10T01:13:48.869Z,1.12
2018-08-10T01:14:54.868Z,1.20
2018-08-10T01:16:01.309Z,1.55
2018-08-10T01:17:07.057Z,1.60
2018-08-10T01:18:13.356Z,1.37
2018-08-10T01:19:19.664Z,1.40
2018-08-10T01:20:25.879Z,1.75
2018-08-10T01:21:31.243Z,1.20
2018-08-10T01:22:37.324Z,1.65
2018-08-10T01:23:43.700Z,1.40
2018-08-10T01:24:49.592Z,1.33
2018-08-10T01:25:55.520Z,1.60
2018-08-10T01:27:01.417Z,1.30
2018-08-10T01:28:07.422Z,1.60
2018-08-10T01:29:12.849Z,1.65
2018-08-10T01:30:18.823Z,2.53
2018-08-10T01:31:25.153Z,1.25
2018-08-10T01:32:31.525Z,1.58
2018-08-10T01:33:37.496Z,1.20
2018-08-10T01:34:43.572Z,1.40
2018-08-10T01:35:49.596Z,1.62
2018-08-10T01:36:55.547Z,1.12
2018-08-10T01:38:01.750Z,1.20
2018-08-10T01:39:07.788Z,1.30
2018-08-10T01:40:13.817Z,1.52
2018-08-10T01:41:20.489Z,1.50
2018-08-10T01:42:26.189Z,1.23
2018-08-10T01:43:32.136Z,1.67
2018-08-10T01:44:37.861Z,1.25
2018-08-10T01:45:44.456Z,1.20
2018-08-10T01:46:50.578Z,1.45
2018-08-10T01:47:57.815Z,1.50
2018-08-10T01:49:04.331Z,1.50
2018-08-10T01:50:10.081Z,1.33
2018-08-10T01:51:15.774Z,1.33
2018-08-10T01:52:21.582Z,1.48
2018-08-10T01:53:27.649Z,1.52
2018-08-10T01:54:33.963Z,1.50
2018-08-10T01:55:40.242Z,1.30
2018-08-10T01:56:46.572Z,1.62
2018-08-10T01:57:52.859Z,1.52
2018-08-10T01:58:59.210Z,1.25
2018-08-10T02:00:05.513Z,1.30
2018-08-10T02:01:11.755Z,1.40
2018-08-10T02:02:17.678Z,1.40
2018-08-10T02:03:23.683Z,1.55
2018-08-10T02:04:30.052Z,1.48
2018-08-10T02:05:35.974Z,1.30
2018-08-10T02:06:42.368Z,1.20
2018-08-10T02:07:48.804Z,1.73
2018-08-10T02:08:54.896Z,1.25
2018-08-10T02:10:00.852Z,1.23
2018-08-10T02:11:06.481Z,1.60
2018-08-10T02:12:12.236Z,1.30
2018-08-10T02:13:18.109Z,1.10
2018-08-10T02:14:23.844Z,1.45
2018-08-10T02:15:29.845Z,0.98
2018-08-10T02:16:36.494Z,1.60
2018-08-10T02:17:42.299Z,1.50
2018-08-10T02:18:47.912Z,0.95
2018-08-10T02:19:54.232Z,1.35
2018-08-10T02:20:59.948Z,1.30
2018-08-10T02:22:05.620Z,1.45
2018-08-10T02:23:12.004Z,1.12
2018-08-10T02:24:18.640Z,1.00
2018-08-10T02:25:25.076Z,1.45
2018-08-10T02:26:43.545Z,1.20
2018-08-10T02:27:49.840Z,1.33
2018-08-10T02:28:56.172Z,1.45
2018-08-10T02:30:02.255Z,1.30
2018-08-10T02:31:07.609Z,1.40
2018-08-10T02:32:13.857Z,1.30
2018-08-10T02:33:20.205Z,1.30
2018-08-10T02:34:26.212Z,1.45
2018-08-10T02:35:32.273Z,1.05
2018-08-10T02:36:38.511Z,1.25
2018-08-10T02:37:44.176Z,1.20
2018-08-10T02:38:50.205Z,1.05
2018-08-10T02:39:56.348Z,1.12
2018-08-10T02:41:02.670Z,1.10
2018-08-10T02:42:08.933Z,1.40
2018-08-10T02:43:15.248Z,1.27
2018-08-10T02:44:21.049Z,1.60
2018-08-10T02:45:27.144Z,1.00
2018-08-10T02:46:33.181Z,1.10
2018-08-10T02:47:39.235Z,1.20
2018-08-10T02:48:45.473Z,1.20
2018-08-10T02:49:53.020Z,1.27
2018-08-10T02:50:59.867Z,1.10
2018-08-10T02:52:05.668Z,1.00
2018-08-10T02:53:11.749Z,1.30
2018-08-10T02:54:17.764Z,0.90
2018-08-10T02:55:23.401Z,1.35
2018-08-10T02:56:29.399Z,1.75
2018-08-10T02:57:35.886Z,1.23
2018-08-10T02:58:42.175Z,1.20
2018-08-10T02:59:48.200Z,1.30
2018-08-10T03:00:54.612Z,0.90
2018-08-10T03:02:01.264Z,1.37
2018-08-10T03:03:06.869Z,1.00
2018-08-10T03:04:13.139Z,1.00
2018-08-10T03:05:19.496Z,1.20
2018-08-10T03:06:25.507Z,1.00
2018-08-10T03:07:31.097Z,1.20
2018-08-10T03:08:37.097Z,1.30
2018-08-10T03:09:43.076Z,1.30
2018-08-10T03:10:49.225Z,1.30
2018-08-10T03:11:55.213Z,1.20
2018-08-10T03:13:01.856Z,0.90
2018-08-10T03:14:07.911Z,1.10
2018-08-10T03:15:13.251Z,1.33
2018-08-10T03:16:18.596Z,1.12
2018-08-10T03:17:24.191Z,1.20
2018-08-10T03:18:30.781Z,1.00
2018-08-10T03:19:36.891Z,1.12
2018-08-10T03:20:43.236Z,1.20
2018-08-10T03:21:49.512Z,1.27
2018-08-10T03:22:55.644Z,0.85
2018-08-10T03:24:02.501Z,1.12
2018-08-10T03:25:08.088Z,1.25
2018-08-10T03:26:14.468Z,0.95
2018-08-10T03:27:20.879Z,1.00
2018-08-10T03:28:26.644Z,1.27
2018-08-10T03:29:32.910Z,0.90
2018-08-10T03:30:39.021Z,0.90
2018-08-10T03:31:45.334Z,1.10
2018-08-10T03:32:51.644Z,1.20
2018-08-10T03:33:57.609Z,1.20
2018-08-10T03:35:03.378Z,1.00
2018-08-10T03:36:10.468Z,0.90
2018-08-10T03:37:16.869Z,1.55
2018-08-10T03:38:23.296Z,1.33
2018-08-10T03:39:29.545Z,1.20
2018-08-10T03:40:36.260Z,1.05
2018-08-10T03:41:41.921Z,0.95
2018-08-10T03:42:48.234Z,1.00
2018-08-10T03:43:54.217Z,1.10
2018-08-10T03:45:00.225Z,1.20
2018-08-10T03:46:05.884Z,1.40
2018-08-10T03:47:11.688Z,1.35
2018-08-10T03:48:17.676Z,0.90
2018-08-10T03:49:24.348Z,1.00
2018-08-10T03:50:29.994Z,0.98
2018-08-10T03:51:36.252Z,1.05
2018-08-10T03:52:42.202Z,1.10
2018-08-10T03:53:48.204Z,1.12
2018-08-10T03:54:54.468Z,0.80
2018-08-10T03:56:00.455Z,1.00
2018-08-10T03:57:07.071Z,0.82
2018-08-10T03:58:13.045Z,1.10
2018-08-10T03:59:19.051Z,0.95
2018-08-10T04:00:25.352Z,1.25
2018-08-10T04:01:32.015Z,0.90
2018-08-10T04:02:38.255Z,1.05
2018-08-10T04:03:44.883Z,1.10
2018-08-10T04:04:50.910Z,0.75
2018-08-10T04:05:56.548Z,0.80
2018-08-10T04:07:02.927Z,1.00
2018-08-10T04:08:09.230Z,1.12
2018-08-10T04:09:15.356Z,1.23
2018-08-10T04:10:21.480Z,1.10
2018-08-10T04:11:27.859Z,1.12
2018-08-10T04:12:33.930Z,1.05
2018-08-10T04:13:40.251Z,1.10
2018-08-10T04:14:46.436Z,1.27
2018-08-10T04:15:52.004Z,1.05
2018-08-10T04:16:58.352Z,0.90
2018-08-10T04:18:04.517Z,1.10
2018-08-10T04:19:10.886Z,1.10
2018-08-10T04:20:17.561Z,0.98
2018-08-10T04:21:23.555Z,0.90
2018-08-10T04:22:29.851Z,1.02
2018-08-10T04:23:36.168Z,1.00
2018-08-10T04:24:41.741Z,1.10
2018-08-10T04:25:48.081Z,0.90
2018-08-10T04:26:54.352Z,0.98
2018-08-10T04:28:00.108Z,1.05
2018-08-10T04:29:06.367Z,1.10
2018-08-10T04:30:12.712Z,1.12
2018-08-10T04:31:18.705Z,0.95
2018-08-10T04:32:24.762Z,1.17
2018-08-10T04:33:31.129Z,0.90
2018-08-10T04:34:37.610Z,0.80
2018-08-10T04:35:43.961Z,1.20
2018-08-10T04:36:50.383Z,0.90
2018-08-10T04:37:56.327Z,0.85
2018-08-10T04:39:02.556Z,0.80
2018-08-10T04:40:07.893Z,1.20
2018-08-10T04:41:13.850Z,1.00
2018-08-10T04:42:20.240Z,0.75
2018-08-10T04:43:26.476Z,0.82
2018-08-10T04:44:32.420Z,1.30
2018-08-10T04:45:38.692Z,0.80
2018-08-10T04:46:45.028Z,1.05
2018-08-10T04:47:50.977Z,1.10
2018-08-10T04:48:57.325Z,1.00
2018-08-10T04:50:03.310Z,0.80
2018-08-10T04:51:09.281Z,0.90
2018-08-10T04:52:15.558Z,0.90
2018-08-10T04:53:21.840Z,0.90
2018-08-10T04:54:28.641Z,0.80
2018-08-10T04:55:35.002Z,0.70
2018-08-10T04:56:41.642Z,0.90
2018-08-10T04:57:47.554Z,1.00
2018-08-10T04:58:53.824Z,0.75
2018-08-10T05:00:00.528Z,0.60
2018-08-10T05:01:06.218Z,0.70
2018-08-10T05:02:12.688Z,0.65
2018-08-10T05:03:18.991Z,0.88
2018-08-10T05:04:24.945Z,0.80
2018-08-10T05:05:30.922Z,0.80
2018-08-10T05:06:37.199Z,0.70
2018-08-10T05:07:43.492Z,0.60
2018-08-10T05:08:49.841Z,0.75
2018-08-10T05:09:56.459Z,0.68
2018-08-10T05:11:03.460Z,0.52
2018-08-10T05:12:09.677Z,0.70
2018-08-10T05:13:15.981Z,0.60
2018-08-10T05:14:22.421Z,0.60
2018-08-10T05:15:28.336Z,0.70
2018-08-10T05:16:34.853Z,0.60
2018-08-10T05:17:41.388Z,0.60
2018-08-10T05:18:47.295Z,0.60
2018-08-10T05:19:53.303Z,0.80
2018-08-10T05:20:59.314Z,0.50
2018-08-10T05:22:05.572Z,0.60
2018-08-10T05:23:11.504Z,0.60
2018-08-10T05:24:17.547Z,0.60
2018-08-10T05:25:23.628Z,0.68
2018-08-10T05:26:29.977Z,0.50
2018-08-10T05:27:38.079Z,0.50
2018-08-10T05:28:44.451Z,0.65
2018-08-10T05:29:51.510Z,0.80
2018-08-10T05:30:58.896Z,0.73
2018-08-10T05:32:08.383Z,0.60
2018-08-10T05:33:17.325Z,0.60
2018-08-10T05:34:27.540Z,0.60
2018-08-10T05:35:36.211Z,0.50
2018-08-10T05:36:43.746Z,0.73
2018-08-10T05:37:51.037Z,0.65
2018-08-10T05:38:59.718Z,0.60
2018-08-10T05:40:07.247Z,0.50
2018-08-10T05:41:15.087Z,0.70
2018-08-10T05:42:24.367Z,0.62
2018-08-10T05:43:31.734Z,0.60
2018-08-10T05:44:39.273Z,0.60
2018-08-10T05:45:47.033Z,0.70
2018-08-10T05:46:54.785Z,0.40
2018-08-10T05:48:01.347Z,0.80
2018-08-10T05:49:07.980Z,0.80
2018-08-10T05:50:14.359Z,0.50
2018-08-10T05:51:20.828Z,0.62
2018-08-10T05:52:27.157Z,0.60
2018-08-10T05:53:33.718Z,0.60
2018-08-10T05:54:40.025Z,0.80
2018-08-10T05:55:46.226Z,0.73
2018-08-10T05:56:52.548Z,0.75
2018-08-10T05:57:58.571Z,0.75
2018-08-10T05:59:04.916Z,0.77
2018-08-10T06:00:10.837Z,0.62
2018-08-10T06:01:17.229Z,0.88
2018-08-10T06:02:23.520Z,0.60
2018-08-10T06:03:30.005Z,1.00
2018-08-10T06:04:36.038Z,0.70
2018-08-10T06:05:42.120Z,0.75
2018-08-10T06:06:47.592Z,0.98
2018-08-10T06:07:53.532Z,0.60
2018-08-10T06:09:01.006Z,0.70
2018-08-10T06:10:06.841Z,0.60
2018-08-10T06:11:12.849Z,0.62
2018-08-10T06:12:18.557Z,0.73
2018-08-10T06:13:24.859Z,0.65
2018-08-10T06:14:31.195Z,0.60
2018-08-10T06:15:37.502Z,0.75
2018-08-10T06:16:43.266Z,0.60
2018-08-10T06:17:49.320Z,0.60
2018-08-10T06:18:55.767Z,0.73
2018-08-10T06:20:02.129Z,0.60
2018-08-10T06:21:08.259Z,0.70
2018-08-10T06:22:13.881Z,0.60
2018-08-10T06:23:20.267Z,0.90
2018-08-10T06:24:26.568Z,0.50
2018-08-10T06:25:32.537Z,0.70
2018-08-10T06:26:39.028Z,0.60
2018-08-10T06:27:45.478Z,0.60
2018-08-10T06:28:51.908Z,0.80
2018-08-10T06:29:58.216Z,0.45
2018-08-10T06:31:04.304Z,0.60
2018-08-10T06:32:10.569Z,0.70
2018-08-10T06:33:16.875Z,0.70
2018-08-10T06:34:23.183Z,0.60
2018-08-10T06:35:29.536Z,0.80
2018-08-10T06:36:35.770Z,0.80
2018-08-10T06:37:42.033Z,0.60
2018-08-10T06:38:48.302Z,0.70
2018-08-10T06:39:55.018Z,0.60
2018-08-10T06:41:01.446Z,0.60
2018-08-10T06:42:07.952Z,0.73
2018-08-10T06:43:14.294Z,0.90
2018-08-10T06:44:20.628Z,0.80
2018-08-10T06:45:27.486Z,0.75
2018-08-10T06:46:33.711Z,0.60
2018-08-10T06:47:40.063Z,0.77
2018-08-10T06:48:46.021Z,0.55
2018-08-10T06:49:52.385Z,0.90
2018-08-10T06:50:58.316Z,0.88
2018-08-10T06:52:03.903Z,0.85
2018-08-10T06:53:10.441Z,0.80
2018-08-10T06:54:16.834Z,0.70
2018-08-10T06:55:23.087Z,0.60
2018-08-10T06:56:29.459Z,0.90
2018-08-10T06:57:35.715Z,0.80
2018-08-10T06:58:42.527Z,0.75
2018-08-10T06:59:48.965Z,0.60
2018-08-10T07:00:55.350Z,0.85
2018-08-10T07:02:01.799Z,0.80
2018-08-10T07:03:08.199Z,0.90
2018-08-10T07:04:14.541Z,0.80
2018-08-10T07:05:20.849Z,1.10
2018-08-10T07:06:27.132Z,0.80
2018-08-10T07:07:33.353Z,1.00
2018-08-10T07:08:40.629Z,0.90
2018-08-10T07:09:46.657Z,1.00
2018-08-10T07:10:52.996Z,1.35
2018-08-10T07:11:59.326Z,0.90
2018-08-10T07:13:05.339Z,0.82
2018-08-10T07:14:11.610Z,0.90
2018-08-10T07:15:17.976Z,0.93
2018-08-10T07:16:24.239Z,0.80
2018-08-10T07:17:30.489Z,0.73
2018-08-10T07:18:36.477Z,1.20
2018-08-10T07:19:42.471Z,0.80
2018-08-10T07:20:48.778Z,0.73
2018-08-10T07:21:55.096Z,0.90
2018-08-10T07:23:01.450Z,1.00
2018-08-10T07:24:07.734Z,0.88
2018-08-10T07:25:14.036Z,0.85
2018-08-10T07:26:20.629Z,1.75
2018-08-10T07:27:26.198Z,0.77
2018-08-10T07:28:32.596Z,0.85
2018-08-10T07:29:39.349Z,1.00
2018-08-10T07:30:45.710Z,1.25
2018-08-10T07:31:52.023Z,0.80
2018-08-10T07:32:58.335Z,2.17
2018-08-10T07:34:04.337Z,0.90
2018-08-10T07:35:10.753Z,1.00
2018-08-10T07:36:17.056Z,0.80
2018-08-10T07:37:23.387Z,0.90
2018-08-10T07:38:29.723Z,0.73
2018-08-10T07:39:36.285Z,0.90
2018-08-10T07:40:42.626Z,0.70
2018-08-10T07:41:48.910Z,0.82
2018-08-10T07:42:55.246Z,1.08
2018-08-10T07:44:01.578Z,0.93
2018-08-10T07:45:07.857Z,0.82
2018-08-10T07:46:14.216Z,0.95
2018-08-10T07:47:20.507Z,1.10
2018-08-10T07:48:27.252Z,1.10
2018-08-10T07:49:33.972Z,0.80
2018-08-10T07:50:39.949Z,1.05
2018-08-10T07:51:46.231Z,1.20
2018-08-10T07:52:52.572Z,1.02
2018-08-10T07:53:58.894Z,0.90
2018-08-10T07:55:04.875Z,0.90
2018-08-10T07:56:11.280Z,1.00
2018-08-10T07:57:17.587Z,0.93
2018-08-10T07:58:23.459Z,0.95
2018-08-10T07:59:29.489Z,1.10
2018-08-10T08:00:35.841Z,0.90
2018-08-10T08:01:42.151Z,1.67
2018-08-10T08:02:48.131Z,1.02
2018-08-10T08:03:53.767Z,1.00
2018-08-10T08:04:59.772Z,1.10
2018-08-10T08:06:05.672Z,1.10
2018-08-10T08:07:11.557Z,0.85
2018-08-10T08:08:17.650Z,0.98
2018-08-10T08:09:23.925Z,0.90
2018-08-10T08:10:29.963Z,1.00
2018-08-10T08:11:35.609Z,1.20
2018-08-10T08:12:41.671Z,1.10
2018-08-10T08:13:47.658Z,1.35
2018-08-10T08:14:54.289Z,1.27
2018-08-10T08:16:00.262Z,1.30
2018-08-10T08:17:05.912Z,1.20
2018-08-10T08:18:11.968Z,1.20
2018-08-10T08:19:18.135Z,1.70
2018-08-10T08:20:24.211Z,1.30
2018-08-10T08:21:31.309Z,1.17
2018-08-10T08:22:38.016Z,1.40
2018-08-10T08:23:46.569Z,2.50
2018-08-10T08:24:52.276Z,1.20
2018-08-10T08:25:58.170Z,1.27
2018-08-10T08:27:03.817Z,1.30
2018-08-10T08:28:10.237Z,1.50
2018-08-10T08:29:16.832Z,1.15
2018-08-10T08:30:25.617Z,1.15
2018-08-10T08:31:33.664Z,1.12
2018-08-10T08:32:41.270Z,1.10
2018-08-10T08:33:47.047Z,1.27
2018-08-10T08:34:52.922Z,1.40
2018-08-10T08:35:58.729Z,1.20
2018-08-10T08:37:04.862Z,1.30
2018-08-10T08:38:13.424Z,1.25
2018-08-10T08:39:18.851Z,0.95
2018-08-10T08:40:24.220Z,1.50
2018-08-10T08:41:30.493Z,1.27
2018-08-10T08:42:36.472Z,1.20
2018-08-10T08:43:42.450Z,1.20
2018-08-10T08:44:47.929Z,1.10
2018-08-10T08:45:53.468Z,1.40
2018-08-10T08:46:58.597Z,1.80
2018-08-10T08:48:03.676Z,1.30
2018-08-10T08:49:09.559Z,1.75
2018-08-10T08:50:15.005Z,1.45
2018-08-10T08:51:20.536Z,1.30
2018-08-10T08:52:25.986Z,2.03
2018-08-10T08:53:31.512Z,1.40
2018-08-10T08:54:48.845Z,1.70
2018-08-10T08:55:54.402Z,1.45
2018-08-10T08:57:00.070Z,1.37
2018-08-10T08:58:05.807Z,1.45
2018-08-10T08:59:11.791Z,1.20
2018-08-10T09:00:17.612Z,1.30
2018-08-10T09:01:24.013Z,1.52
2018-08-10T09:02:30.026Z,1.30
2018-08-10T09:03:47.452Z,1.30
2018-08-10T09:04:52.911Z,1.48
2018-08-10T09:05:58.738Z,1.20
2018-08-10T09:07:05.102Z,1.60
2018-08-10T09:08:11.108Z,1.42
2018-08-10T09:09:28.504Z,1.00
2018-08-10T09:10:34.913Z,1.10
2018-08-10T09:11:41.051Z,1.37
2018-08-10T09:12:46.696Z,1.30
2018-08-10T09:13:52.726Z,1.55
2018-08-10T09:14:58.644Z,1.20
2018-08-10T09:16:04.557Z,1.08
2018-08-10T09:17:10.577Z,1.27
2018-08-10T09:18:16.199Z,1.45
2018-08-10T09:19:22.529Z,1.40
2018-08-10T09:20:28.513Z,1.15
2018-08-10T09:21:34.841Z,1.17
2018-08-10T09:22:40.767Z,1.33
2018-08-10T09:23:47.238Z,1.20
2018-08-10T09:24:53.231Z,1.42
2018-08-10T09:25:59.237Z,1.50
2018-08-10T09:27:05.077Z,1.30
2018-08-10T09:28:11.368Z,1.50
2018-08-10T09:29:17.770Z,1.50
2018-08-10T09:30:23.392Z,1.25
2018-08-10T09:31:29.777Z,1.50
2018-08-10T09:32:35.433Z,1.60
2018-08-10T09:33:42.011Z,1.45
2018-08-10T09:34:47.657Z,1.35
2018-08-10T09:35:54.031Z,1.20
2018-08-10T09:36:59.648Z,2.12
2018-08-10T09:38:05.523Z,1.58
2018-08-10T09:39:11.552Z,1.40
2018-08-10T09:40:17.545Z,1.25
2018-08-10T09:41:23.856Z,1.30
2018-08-10T09:42:29.656Z,1.30
2018-08-10T09:43:35.628Z,1.17
2018-08-10T09:44:41.789Z,1.35
2018-08-10T09:45:47.823Z,1.42
2018-08-10T09:46:54.370Z,1.50
2018-08-10T09:48:00.468Z,1.30
2018-08-10T09:49:07.259Z,1.35
2018-08-10T09:50:14.040Z,1.00
2018-08-10T09:51:20.411Z,1.65
2018-08-10T09:52:26.581Z,1.20
2018-08-10T09:53:32.640Z,1.23
2018-08-10T09:54:38.060Z,1.33
2018-08-10T09:56:00.164Z,1.20
2018-08-10T09:57:05.971Z,1.60
2018-08-10T09:58:11.620Z,1.40
2018-08-10T09:59:18.018Z,1.33
2018-08-10T10:00:23.868Z,1.10
2018-08-10T10:01:29.555Z,1.50
2018-08-10T10:02:35.520Z,1.40
2018-08-10T10:03:41.932Z,1.40
2018-08-10T10:04:47.922Z,1.20
2018-08-10T10:05:53.885Z,1.23
2018-08-10T10:07:00.477Z,1.37
2018-08-10T10:08:05.773Z,1.37
2018-08-10T10:09:12.192Z,1.20
2018-08-10T10:10:18.505Z,1.35
2018-08-10T10:11:24.816Z,1.45
2018-08-10T10:12:31.832Z,1.48
2018-08-10T10:13:37.871Z,1.27
2018-08-10T10:14:44.171Z,1.17
2018-08-10T10:15:50.455Z,1.20
2018-08-10T10:16:56.786Z,1.73
2018-08-10T10:18:02.381Z,1.85
2018-08-10T10:19:08.468Z,1.20
2018-08-10T10:20:14.116Z,1.30
2018-08-10T10:21:20.397Z,1.48
2018-08-10T10:22:26.321Z,1.60
2018-08-10T10:23:32.470Z,1.40
2018-08-10T10:24:38.386Z,1.52
2018-08-10T10:25:44.805Z,1.80
2018-08-10T10:26:51.129Z,1.30
2018-08-10T10:27:56.733Z,1.30
2018-08-10T10:29:02.773Z,1.83
2018-08-10T10:30:08.765Z,1.23
2018-08-10T10:31:14.831Z,1.37
2018-08-10T10:32:20.909Z,1.37
2018-08-10T10:33:27.167Z,1.50
2018-08-10T10:34:33.300Z,1.35
2018-08-10T10:35:39.308Z,1.50
2018-08-10T10:36:45.309Z,1.35
2018-08-10T10:37:51.596Z,1.45
2018-08-10T10:38:57.908Z,1.37
2018-08-10T10:40:03.871Z,1.02
2018-08-10T10:41:10.299Z,1.30
2018-08-10T10:42:16.643Z,1.40
2018-08-10T10:43:22.925Z,1.42
2018-08-10T10:44:29.270Z,1.70
2018-08-10T10:45:35.776Z,1.35
2018-08-10T10:46:42.814Z,1.33
2018-08-10T10:47:48.792Z,1.30
2018-08-10T10:48:55.140Z,1.40
2018-08-10T10:50:01.418Z,1.50
2018-08-10T10:51:07.514Z,1.40
2018-08-10T10:52:13.828Z,1.25
2018-08-10T10:53:19.888Z,1.52
2018-08-10T10:54:26.157Z,1.15
2018-08-10T10:55:32.537Z,0.90
2018-08-10T10:56:39.177Z,1.20
2018-08-10T10:57:45.754Z,1.30
2018-08-10T10:58:52.007Z,1.20
2018-08-10T10:59:58.322Z,1.12
2018-08-10T11:01:04.762Z,1.90
2018-08-10T11:02:11.304Z,1.27
2018-08-10T11:03:17.709Z,1.15
2018-08-10T11:04:23.617Z,0.95
2018-08-10T11:05:30.090Z,1.20
2018-08-10T11:06:37.013Z,1.40
2018-08-10T11:07:43.331Z,1.37
2018-08-10T11:08:49.309Z,1.20
2018-08-10T11:09:55.321Z,1.10
2018-08-10T11:11:01.550Z,1.40
2018-08-10T11:12:07.576Z,1.40
2018-08-10T11:13:13.995Z,1.23
2018-08-10T11:14:20.328Z,1.25
2018-08-10T11:15:26.232Z,1.27
2018-08-10T11:16:32.753Z,1.23
2018-08-10T11:17:39.137Z,1.55
2018-08-10T11:18:45.457Z,1.20
2018-08-10T11:19:51.752Z,1.27
2018-08-10T11:20:58.061Z,1.08
2018-08-10T11:22:03.775Z,1.23
2018-08-10T11:23:09.844Z,1.20
2018-08-10T11:24:16.167Z,1.20
2018-08-10T11:25:22.210Z,1.00
2018-08-10T11:26:28.470Z,1.35
2018-08-10T11:27:34.851Z,1.30
2018-08-10T11:28:41.144Z,1.40
2018-08-10T11:29:47.216Z,1.30
2018-08-10T11:30:53.661Z,1.10
2018-08-10T11:32:01.407Z,1.30
2018-08-10T11:33:08.276Z,1.37
2018-08-10T11:34:14.613Z,1.42
2018-08-10T11:35:20.955Z,1.35
2018-08-10T11:36:26.889Z,1.50
2018-08-10T11:37:32.546Z,1.40
2018-08-10T11:38:39.072Z,1.30
2018-08-10T11:39:45.156Z,1.00
2018-08-10T11:40:50.877Z,1.12
2018-08-10T11:41:57.292Z,1.33
2018-08-10T11:43:03.706Z,1.20
2018-08-10T11:44:09.622Z,1.20
2018-08-10T11:45:16.028Z,1.30
2018-08-10T11:46:22.316Z,1.17
2018-08-10T11:47:28.638Z,1.00
2018-08-10T11:48:34.608Z,1.20
2018-08-10T11:49:40.964Z,1.15
2018-08-10T11:50:47.298Z,1.15
2018-08-10T11:51:53.340Z,1.40
2018-08-10T11:53:00.018Z,1.25
2018-08-10T11:54:05.625Z,0.90
2018-08-10T11:55:11.565Z,1.00
2018-08-10T11:56:17.912Z,1.00
2018-08-10T11:57:24.222Z,1.25
2018-08-10T11:58:30.646Z,1.00
2018-08-10T11:59:36.704Z,1.20
2018-08-10T12:00:42.727Z,1.50
2018-08-10T12:01:48.452Z,1.30
2018-08-10T12:02:55.261Z,1.02
2018-08-10T12:04:01.628Z,1.20
2018-08-10T12:05:07.323Z,1.80
2018-08-10T12:06:13.708Z,1.02
2018-08-10T12:07:20.733Z,1.10
2018-08-10T12:08:26.783Z,1.10
2018-08-10T12:09:32.531Z,1.10
2018-08-10T12:10:38.819Z,1.25
2018-08-10T12:11:45.136Z,1.00
2018-08-10T12:12:51.557Z,1.20
2018-08-10T12:13:58.090Z,1.00
2018-08-10T12:15:03.736Z,0.93
2018-08-10T12:16:09.820Z,0.98
2018-08-10T12:17:15.833Z,1.00
2018-08-10T12:18:22.209Z,1.30
2018-08-10T12:19:28.493Z,1.30
2018-08-10T12:20:34.004Z,0.90
2018-08-10T12:21:40.113Z,1.50
2018-08-10T12:22:46.414Z,1.30
2018-08-10T12:23:52.341Z,1.17
2018-08-10T12:24:58.424Z,1.00
2018-08-10T12:26:04.051Z,1.00
2018-08-10T12:27:09.686Z,0.80
2018-08-10T12:28:16.079Z,0.95
2018-08-10T12:29:22.364Z,1.00
2018-08-10T12:30:28.654Z,0.80
2018-08-10T12:31:34.894Z,0.90
2018-08-10T12:32:41.386Z,0.98
2018-08-10T12:33:47.520Z,1.02
2018-08-10T12:34:53.914Z,1.30
2018-08-10T12:36:00.998Z,0.90
2018-08-10T12:37:07.133Z,1.15
2018-08-10T12:38:13.459Z,1.10
2018-08-10T12:39:19.635Z,1.25
2018-08-10T12:40:25.913Z,0.93
2018-08-10T12:41:32.181Z,1.00
2018-08-10T12:42:38.173Z,1.10
2018-08-10T12:43:43.836Z,0.98
2018-08-10T12:44:50.235Z,1.10
2018-08-10T12:45:57.711Z,1.20
2018-08-10T12:47:05.737Z,1.02
2018-08-10T12:48:13.571Z,1.10
2018-08-10T12:49:21.071Z,1.00
2018-08-10T12:50:28.442Z,1.27
2018-08-10T12:51:36.402Z,0.90
2018-08-10T12:52:44.278Z,1.10
2018-08-10T12:53:51.815Z,1.27
2018-08-10T12:54:59.854Z,1.15
2018-08-10T12:56:07.363Z,1.10
2018-08-10T12:57:14.129Z,1.10
2018-08-10T12:58:21.751Z,1.08
2018-08-10T12:59:28.019Z,1.20
2018-08-10T13:00:34.323Z,0.90
2018-08-10T13:01:40.642Z,0.90
2018-08-10T13:02:46.969Z,0.75
2018-08-10T13:03:53.141Z,1.20
2018-08-10T13:05:01.061Z,0.80
2018-08-10T13:06:07.008Z,0.95
2018-08-10T13:07:13.698Z,0.77
2018-08-10T13:08:19.319Z,0.97
2018-08-10T13:09:25.906Z,1.00
2018-08-10T13:10:31.983Z,0.88
2018-08-10T13:11:38.569Z,1.00
2018-08-10T13:12:44.917Z,1.10
2018-08-10T13:13:50.565Z,0.80
2018-08-10T13:14:56.919Z,0.90
2018-08-10T13:16:02.850Z,1.05
2018-08-10T13:17:08.852Z,0.90
2018-08-10T13:18:14.777Z,1.23
2018-08-10T13:19:21.749Z,0.90
2018-08-10T13:20:27.768Z,1.10
2018-08-10T13:21:34.049Z,1.00
2018-08-10T13:22:40.080Z,1.15
2018-08-10T13:23:46.061Z,1.00
2018-08-10T13:24:51.988Z,0.90
2018-08-10T13:25:58.327Z,0.93
2018-08-10T13:27:03.904Z,1.00
2018-08-10T13:28:09.849Z,1.42
2018-08-10T13:29:16.220Z,1.12
2018-08-10T13:30:22.174Z,1.37
2018-08-10T13:31:28.177Z,0.93
2018-08-10T13:32:34.033Z,0.80
2018-08-10T13:33:40.445Z,0.93
2018-08-10T13:34:46.398Z,1.10
2018-08-10T13:35:52.662Z,1.05
2018-08-10T13:36:58.264Z,0.88
2018-08-10T13:38:03.857Z,0.80
2018-08-10T13:39:09.224Z,0.93
2018-08-10T13:40:14.615Z,0.80
2018-08-10T13:41:20.569Z,1.20
2018-08-10T13:42:26.918Z,0.90
2018-08-10T13:43:33.074Z,0.77
2018-08-10T13:44:39.209Z,0.88
2018-08-10T13:45:45.572Z,1.15
2018-08-10T13:46:51.564Z,1.07
2018-08-10T13:47:57.181Z,1.17
2018-08-10T13:49:02.522Z,0.90
2018-08-10T13:50:08.010Z,1.10
2018-08-10T13:51:14.013Z,1.00
2018-08-10T13:52:20.392Z,1.10
2018-08-10T13:53:26.165Z,0.90
2018-08-10T13:54:32.236Z,1.08
2018-08-10T13:55:38.601Z,1.12
2018-08-10T13:56:44.554Z,1.15
2018-08-10T13:57:52.579Z,1.05
2018-08-10T13:58:59.195Z,1.10
2018-08-10T14:00:05.682Z,1.08
2018-08-10T14:01:11.953Z,1.07
2018-08-10T14:02:18.838Z,1.00
2018-08-10T14:03:27.151Z,1.17
2018-08-10T14:04:34.198Z,1.00
2018-08-10T14:05:41.902Z,0.82
2018-08-10T14:06:50.784Z,1.10
2018-08-10T14:07:58.696Z,1.00
2018-08-10T14:09:05.330Z,0.95
2018-08-10T14:10:12.891Z,0.93
2018-08-10T14:11:20.889Z,0.97
2018-08-10T14:12:28.501Z,1.00
2018-08-10T14:13:35.143Z,1.20
2018-08-10T14:14:42.621Z,1.07
2018-08-10T14:15:50.728Z,1.37
2018-08-10T14:17:00.042Z,1.00
2018-08-10T14:18:08.253Z,1.10
2018-08-10T14:19:16.541Z,0.80
2018-08-10T14:20:25.293Z,0.98
2018-08-10T14:21:33.164Z,0.87
2018-08-10T14:22:40.858Z,0.90
2018-08-10T14:23:49.094Z,1.20
2018-08-10T14:24:56.723Z,1.00
2018-08-10T14:26:04.276Z,0.97
2018-08-10T14:27:12.495Z,0.80
2018-08-10T14:28:19.471Z,0.90
2018-08-10T14:29:27.343Z,1.17
2018-08-10T14:30:35.240Z,0.93
2018-08-10T14:31:42.334Z,0.93
2018-08-10T14:32:49.435Z,0.80
2018-08-10T14:33:58.740Z,0.80
2018-08-10T14:35:06.306Z,1.00
2018-08-10T14:36:14.221Z,0.95
2018-08-10T14:37:22.617Z,0.80
2018-08-10T14:38:30.542Z,0.80
2018-08-10T14:39:38.145Z,0.90
2018-08-10T14:40:44.756Z,1.10
2018-08-10T14:41:52.281Z,0.83
2018-08-10T14:43:00.124Z,0.90